PWSweather.com
Personal Weather Stations
Station Observations
MENWDWX1
Menstrie, ScotlandGB

MenstrieScotlandGB

Lat: 56.148322, Lon: -3.85483

Elevation: 62

Station Type: Davis Vantage Pro 2

High Low Average
Temperature 57.4°F14.1°C 46.5°F8.1°C 50.8°F10.4°C
Dew Point 48.7°F9.3°C 42.9°F6.1°C 45.7°F7.6°C
Winds 9.2 mph 14.8 kmh Calm Calm 4.0 mph WSW6.4 kmh WSW
Wind Gusts 15.0 mph24.1 kmh -- 7.0 mph11.3 kmh
Humidity 91% 71% 83%
Pressure 29.49 in998.6 mb 29.18 in988.1 mb -
Precipitation 0.17 in4.3 mm - -
Hour Temp Dew Point Humidity Winds Wind Gusts Pressure Precip Precip Rate Daily Precip Total
12:00 AM 47.0°F8.3°C 43.9°F6.6°C 89% Calm Calm -- 29.20 in988.8 mb - 0.00 in0.0 mm 0.00 in0.0 mm
12:05 AM 47.0°F8.3°C 43.9°F6.6°C 89% Calm Calm -- 29.20 in988.8 mb - 0.00 in0.0 mm 0.00 in0.0 mm
12:10 AM 47.0°F8.3°C 43.9°F6.6°C 89% Calm Calm -- 29.20 in988.8 mb - 0.00 in0.0 mm 0.00 in0.0 mm
12:15 AM 46.9°F8.3°C 43.9°F6.6°C 89% Calm Calm -- 29.20 in988.8 mb - 0.00 in0.0 mm 0.00 in0.0 mm
12:20 AM 46.9°F8.3°C 43.8°F6.6°C 89% Calm Calm -- 29.20 in988.8 mb - 0.00 in0.0 mm 0.00 in0.0 mm
12:25 AM 46.9°F8.3°C 43.8°F6.6°C 89% Calm Calm -- 29.20 in988.8 mb - 0.00 in0.0 mm 0.00 in0.0 mm
12:30 AM 46.9°F8.3°C 43.8°F6.6°C 89% Calm Calm -- 29.20 in988.8 mb - 0.00 in0.0 mm 0.00 in0.0 mm
12:35 AM 46.8°F8.2°C 43.7°F6.5°C 89% Calm Calm -- 29.19 in988.5 mb - 0.00 in0.0 mm 0.00 in0.0 mm
12:40 AM 46.8°F8.2°C 43.7°F6.5°C 89% Calm Calm -- 29.19 in988.5 mb - 0.01 in0.3 mm 0.01 in0.3 mm
12:45 AM 46.7°F8.2°C 43.6°F6.4°C 89% Calm Calm -- 29.20 in988.8 mb - 0.00 in0.0 mm 0.01 in0.3 mm
12:50 AM 46.6°F8.1°C 43.5°F6.4°C 89% Calm Calm -- 29.19 in988.5 mb - 0.00 in0.0 mm 0.01 in0.3 mm
12:55 AM 46.6°F8.1°C 43.5°F6.4°C 89% Calm Calm -- 29.19 in988.5 mb - 0.00 in0.0 mm 0.01 in0.3 mm
01:00 AM 46.6°F8.1°C 43.5°F6.4°C 89% Calm Calm -- 29.19 in988.5 mb - 0.00 in0.0 mm 0.01 in0.3 mm
01:05 AM 46.6°F8.1°C 43.6°F6.4°C 89% Calm Calm -- 29.19 in988.5 mb - 0.00 in0.0 mm 0.01 in0.3 mm
01:10 AM 46.7°F8.2°C 43.9°F6.6°C 90% Calm Calm -- 29.19 in988.5 mb - 0.00 in0.0 mm 0.01 in0.3 mm
01:15 AM 46.7°F8.2°C 43.9°F6.6°C 90% Calm Calm -- 29.19 in988.5 mb - 0.00 in0.0 mm 0.01 in0.3 mm
01:20 AM 46.7°F8.2°C 43.9°F6.6°C 90% 2.3 mph ENE3.7 kmh ENE 3.5 mph5.6 kmh 29.19 in988.5 mb - 0.00 in0.0 mm 0.01 in0.3 mm
01:25 AM 46.5°F8.1°C 43.5°F6.4°C 89% 2.3 mph NNE3.7 kmh NNE 3.5 mph5.6 kmh 29.19 in988.5 mb - 0.00 in0.0 mm 0.01 in0.3 mm
01:30 AM 46.5°F8.1°C 43.4°F6.3°C 89% 1.2 mph NNE1.9 kmh NNE 2.3 mph3.7 kmh 29.19 in988.5 mb - 0.00 in0.0 mm 0.01 in0.3 mm
01:35 AM 46.5°F8.1°C 43.4°F6.3°C 89% Calm Calm -- 29.19 in988.5 mb - 0.00 in0.0 mm 0.01 in0.3 mm
01:40 AM 46.5°F8.1°C 43.4°F6.3°C 89% 1.2 mph NNE1.9 kmh NNE 2.3 mph3.7 kmh 29.19 in988.5 mb - 0.00 in0.0 mm 0.01 in0.3 mm
01:45 AM 46.5°F8.1°C 43.5°F6.4°C 89% 1.2 mph NNE1.9 kmh NNE 2.3 mph3.7 kmh 29.19 in988.5 mb - 0.00 in0.0 mm 0.01 in0.3 mm
01:50 AM 46.7°F8.2°C 43.9°F6.6°C 90% Calm Calm -- 29.19 in988.5 mb - 0.00 in0.0 mm 0.01 in0.3 mm
01:55 AM 46.8°F8.2°C 44.0°F6.7°C 90% Calm Calm -- 29.19 in988.5 mb - 0.01 in0.3 mm 0.02 in0.5 mm
02:00 AM 47.0°F8.3°C 44.2°F6.8°C 90% 2.3 mph NNE3.7 kmh NNE 3.5 mph5.6 kmh 29.19 in988.5 mb - 0.00 in0.0 mm 0.02 in0.5 mm
02:05 AM 47.1°F8.4°C 44.3°F6.8°C 90% 2.3 mph N3.7 kmh N 3.5 mph5.6 kmh 29.19 in988.5 mb - 0.00 in0.0 mm 0.02 in0.5 mm
02:10 AM 47.3°F8.5°C 44.5°F6.9°C 90% Calm Calm 1.2 mph1.9 kmh 29.19 in988.5 mb - 0.00 in0.0 mm 0.02 in0.5 mm
02:15 AM 47.3°F8.5°C 44.5°F6.9°C 90% 1.2 mph WSW1.9 kmh WSW 1.2 mph1.9 kmh 29.19 in988.5 mb - 0.00 in0.0 mm 0.02 in0.5 mm
02:20 AM 47.3°F8.5°C 44.5°F6.9°C 90% 1.2 mph W1.9 kmh W 3.5 mph5.6 kmh 29.19 in988.5 mb - 0.00 in0.0 mm 0.02 in0.5 mm
02:25 AM 47.3°F8.5°C 44.5°F6.9°C 90% Calm Calm 3.5 mph5.6 kmh 29.19 in988.5 mb - 0.00 in0.0 mm 0.02 in0.5 mm
02:30 AM 47.4°F8.6°C 44.6°F7.0°C 90% 1.2 mph WSW1.9 kmh WSW 3.5 mph5.6 kmh 29.19 in988.5 mb - 0.00 in0.0 mm 0.02 in0.5 mm
02:35 AM 47.4°F8.6°C 44.6°F7.0°C 90% 1.2 mph WSW1.9 kmh WSW 3.5 mph5.6 kmh 29.19 in988.5 mb - 0.00 in0.0 mm 0.02 in0.5 mm
02:40 AM 47.5°F8.6°C 44.7°F7.1°C 90% 2.3 mph WSW3.7 kmh WSW 5.8 mph9.3 kmh 29.19 in988.5 mb - 0.00 in0.0 mm 0.02 in0.5 mm
02:45 AM 47.6°F8.7°C 44.8°F7.1°C 90% 2.3 mph W3.7 kmh W 3.5 mph5.6 kmh 29.19 in988.5 mb - 0.00 in0.0 mm 0.02 in0.5 mm
02:50 AM 47.7°F8.7°C 44.9°F7.2°C 90% 4.6 mph WSW7.4 kmh WSW 6.9 mph11.1 kmh 29.19 in988.5 mb - 0.01 in0.3 mm 0.03 in0.8 mm
02:55 AM 47.7°F8.7°C 44.9°F7.2°C 90% 3.5 mph W5.6 kmh W 3.5 mph5.6 kmh 29.19 in988.5 mb - 0.00 in0.0 mm 0.03 in0.8 mm
03:00 AM 47.6°F8.7°C 44.8°F7.1°C 90% 3.5 mph W5.6 kmh W 5.8 mph9.3 kmh 29.18 in988.1 mb - 0.00 in0.0 mm 0.03 in0.8 mm
03:05 AM 47.6°F8.7°C 44.8°F7.1°C 90% 3.5 mph W5.6 kmh W 6.9 mph11.1 kmh 29.19 in988.5 mb - 0.00 in0.0 mm 0.03 in0.8 mm
03:10 AM 47.5°F8.6°C 44.7°F7.1°C 90% 3.5 mph W5.6 kmh W 6.9 mph11.1 kmh 29.18 in988.1 mb - 0.00 in0.0 mm 0.03 in0.8 mm
03:15 AM 47.4°F8.6°C 44.6°F7.0°C 90% 4.6 mph WSW7.4 kmh WSW 9.2 mph14.8 kmh 29.18 in988.1 mb - 0.00 in0.0 mm 0.03 in0.8 mm
03:20 AM 47.4°F8.6°C 44.6°F7.0°C 90% 4.6 mph W7.4 kmh W 8.1 mph13.0 kmh 29.19 in988.5 mb - 0.01 in0.3 mm 0.03 in0.8 mm
03:25 AM 47.3°F8.5°C 44.5°F6.9°C 90% 4.6 mph W7.4 kmh W 9.2 mph14.8 kmh 29.19 in988.5 mb - 0.00 in0.0 mm 0.03 in0.8 mm
03:30 AM 47.3°F8.5°C 44.5°F6.9°C 90% 4.6 mph W7.4 kmh W 10.4 mph16.7 kmh 29.19 in988.5 mb - 0.00 in0.0 mm 0.03 in0.8 mm
03:35 AM 47.2°F8.4°C 44.4°F6.9°C 90% 5.8 mph W9.3 kmh W 9.2 mph14.8 kmh 29.19 in988.5 mb - 0.00 in0.0 mm 0.03 in0.8 mm
03:40 AM 47.2°F8.4°C 44.4°F6.9°C 90% 5.8 mph W9.3 kmh W 9.2 mph14.8 kmh 29.19 in988.5 mb - 0.00 in0.0 mm 0.03 in0.8 mm
03:45 AM 47.2°F8.4°C 44.4°F6.9°C 90% 4.6 mph W7.4 kmh W 10.4 mph16.7 kmh 29.19 in988.5 mb - 0.00 in0.0 mm 0.03 in0.8 mm
03:50 AM 47.1°F8.4°C 44.3°F6.8°C 90% 4.6 mph W7.4 kmh W 6.9 mph11.1 kmh 29.19 in988.5 mb - 0.01 in0.3 mm 0.04 in1.0 mm
03:55 AM 47.1°F8.4°C 44.3°F6.8°C 90% 3.5 mph W5.6 kmh W 6.9 mph11.1 kmh 29.19 in988.5 mb - 0.00 in0.0 mm 0.04 in1.0 mm
04:00 AM 47.0°F8.3°C 44.2°F6.8°C 90% 5.8 mph WSW9.3 kmh WSW 10.4 mph16.7 kmh 29.19 in988.5 mb - 0.00 in0.0 mm 0.04 in1.0 mm
04:05 AM 47.0°F8.3°C 44.2°F6.8°C 90% 5.8 mph W9.3 kmh W 9.2 mph14.8 kmh 29.19 in988.5 mb - 0.00 in0.0 mm 0.04 in1.0 mm
04:10 AM 47.0°F8.3°C 44.2°F6.8°C 90% 5.8 mph W9.3 kmh W 11.5 mph18.5 kmh 29.19 in988.5 mb - 0.00 in0.0 mm 0.04 in1.0 mm
04:15 AM 47.0°F8.3°C 44.2°F6.8°C 90% 4.6 mph WNW7.4 kmh WNW 8.1 mph13.0 kmh 29.19 in988.5 mb - 0.00 in0.0 mm 0.04 in1.0 mm
04:20 AM 47.0°F8.3°C 44.2°F6.8°C 90% 5.8 mph W9.3 kmh W 9.2 mph14.8 kmh 29.19 in988.5 mb - 0.00 in0.0 mm 0.04 in1.0 mm
04:25 AM 47.0°F8.3°C 44.2°F6.8°C 90% 5.8 mph W9.3 kmh W 10.4 mph16.7 kmh 29.19 in988.5 mb - 0.00 in0.0 mm 0.04 in1.0 mm
04:30 AM 47.0°F8.3°C 44.2°F6.8°C 90% 5.8 mph W9.3 kmh W 9.2 mph14.8 kmh 29.19 in988.5 mb - 0.00 in0.0 mm 0.04 in1.0 mm
04:35 AM 47.0°F8.3°C 44.2°F6.8°C 90% 5.8 mph W9.3 kmh W 11.5 mph18.5 kmh 29.19 in988.5 mb - 0.00 in0.0 mm 0.04 in1.0 mm
04:40 AM 47.0°F8.3°C 44.2°F6.8°C 90% 5.8 mph W9.3 kmh W 8.1 mph13.0 kmh 29.19 in988.5 mb - 0.00 in0.0 mm 0.04 in1.0 mm
04:45 AM 47.0°F8.3°C 44.5°F6.9°C 91% 4.6 mph W7.4 kmh W 6.9 mph11.1 kmh 29.19 in988.5 mb - 0.00 in0.0 mm 0.04 in1.0 mm
04:50 AM 47.0°F8.3°C 44.5°F6.9°C 91% 6.9 mph W11.1 kmh W 11.5 mph18.5 kmh 29.19 in988.5 mb - 0.00 in0.0 mm 0.04 in1.0 mm
04:55 AM 47.0°F8.3°C 44.5°F6.9°C 91% 4.6 mph W7.4 kmh W 10.4 mph16.7 kmh 29.19 in988.5 mb - 0.01 in0.3 mm 0.05 in1.3 mm
05:00 AM 47.0°F8.3°C 44.5°F6.9°C 91% 5.8 mph W9.3 kmh W 9.2 mph14.8 kmh 29.19 in988.5 mb - 0.00 in0.0 mm 0.05 in1.3 mm
05:05 AM 47.0°F8.3°C 44.2°F6.8°C 90% 5.8 mph WNW9.3 kmh WNW 11.5 mph18.5 kmh 29.19 in988.5 mb - 0.00 in0.0 mm 0.05 in1.3 mm
05:10 AM 47.0°F8.3°C 44.5°F6.9°C 91% 6.9 mph W11.1 kmh W 9.2 mph14.8 kmh 29.19 in988.5 mb - 0.00 in0.0 mm 0.05 in1.3 mm
05:15 AM 47.0°F8.3°C 44.5°F6.9°C 91% 6.9 mph W11.1 kmh W 11.5 mph18.5 kmh 29.19 in988.5 mb - 0.00 in0.0 mm 0.05 in1.3 mm
05:20 AM 47.0°F8.3°C 44.5°F6.9°C 91% 4.6 mph W7.4 kmh W 9.2 mph14.8 kmh 29.20 in988.8 mb - 0.00 in0.0 mm 0.05 in1.3 mm
05:25 AM 47.0°F8.3°C 44.5°F6.9°C 91% 5.8 mph W9.3 kmh W 9.2 mph14.8 kmh 29.20 in988.8 mb - 0.00 in0.0 mm 0.05 in1.3 mm
05:30 AM 47.0°F8.3°C 44.5°F6.9°C 91% 6.9 mph WNW11.1 kmh WNW 11.5 mph18.5 kmh 29.20 in988.8 mb - 0.00 in0.0 mm 0.05 in1.3 mm
05:35 AM 47.0°F8.3°C 44.5°F6.9°C 91% 5.8 mph W9.3 kmh W 11.5 mph18.5 kmh 29.20 in988.8 mb - 0.00 in0.0 mm 0.05 in1.3 mm
05:40 AM 47.0°F8.3°C 44.5°F6.9°C 91% 6.9 mph W11.1 kmh W 11.5 mph18.5 kmh 29.20 in988.8 mb - 0.00 in0.0 mm 0.05 in1.3 mm
05:45 AM 47.0°F8.3°C 44.2°F6.8°C 90% 4.6 mph WNW7.4 kmh WNW 6.9 mph11.1 kmh 29.20 in988.8 mb - 0.00 in0.0 mm 0.05 in1.3 mm
05:50 AM 47.0°F8.3°C 44.2°F6.8°C 90% 5.8 mph W9.3 kmh W 9.2 mph14.8 kmh 29.20 in988.8 mb - 0.01 in0.3 mm 0.06 in1.5 mm
05:55 AM 47.0°F8.3°C 44.2°F6.8°C 90% 5.8 mph WNW9.3 kmh WNW 12.7 mph20.4 kmh 29.20 in988.8 mb - 0.00 in0.0 mm 0.06 in1.5 mm
06:00 AM 47.0°F8.3°C 44.2°F6.8°C 90% 4.6 mph WNW7.4 kmh WNW 11.5 mph18.5 kmh 29.20 in988.8 mb - 0.00 in0.0 mm 0.06 in1.5 mm
06:05 AM 47.0°F8.3°C 44.3°F6.8°C 90% 5.8 mph WNW9.3 kmh WNW 11.5 mph18.5 kmh 29.20 in988.8 mb - 0.00 in0.0 mm 0.06 in1.5 mm
06:10 AM 47.0°F8.3°C 44.3°F6.8°C 90% 3.5 mph W5.6 kmh W 6.9 mph11.1 kmh 29.21 in989.2 mb - 0.00 in0.0 mm 0.06 in1.5 mm
06:15 AM 47.1°F8.4°C 44.3°F6.8°C 90% 8.1 mph WNW13.0 kmh WNW 11.5 mph18.5 kmh 29.21 in989.2 mb - 0.00 in0.0 mm 0.06 in1.5 mm
06:20 AM 47.1°F8.4°C 44.3°F6.8°C 90% 5.8 mph WNW9.3 kmh WNW 9.2 mph14.8 kmh 29.21 in989.2 mb - 0.00 in0.0 mm 0.06 in1.5 mm
06:25 AM 47.1°F8.4°C 44.3°F6.8°C 90% 6.9 mph W11.1 kmh W 9.2 mph14.8 kmh 29.21 in989.2 mb - 0.00 in0.0 mm 0.06 in1.5 mm
06:30 AM 47.1°F8.4°C 44.3°F6.8°C 90% 5.8 mph WNW9.3 kmh WNW 11.5 mph18.5 kmh 29.21 in989.2 mb - 0.00 in0.0 mm 0.06 in1.5 mm
06:35 AM 47.1°F8.4°C 44.3°F6.8°C 90% 8.1 mph W13.0 kmh W 11.5 mph18.5 kmh 29.21 in989.2 mb - 0.00 in0.0 mm 0.06 in1.5 mm
06:40 AM 47.1°F8.4°C 44.3°F6.8°C 90% 5.8 mph W9.3 kmh W 11.5 mph18.5 kmh 29.22 in989.5 mb - 0.00 in0.0 mm 0.06 in1.5 mm
06:45 AM 47.2°F8.4°C 44.4°F6.9°C 90% 4.6 mph WNW7.4 kmh WNW 10.4 mph16.7 kmh 29.22 in989.5 mb - 0.00 in0.0 mm 0.06 in1.5 mm
06:50 AM 47.2°F8.4°C 44.4°F6.9°C 90% 4.6 mph WNW7.4 kmh WNW 8.1 mph13.0 kmh 29.22 in989.5 mb - 0.00 in0.0 mm 0.06 in1.5 mm
06:55 AM 47.2°F8.4°C 44.4°F6.9°C 90% 5.8 mph WNW9.3 kmh WNW 10.4 mph16.7 kmh 29.22 in989.5 mb - 0.00 in0.0 mm 0.06 in1.5 mm
07:00 AM 47.2°F8.4°C 44.4°F6.9°C 90% 6.9 mph WNW11.1 kmh WNW 11.5 mph18.5 kmh 29.22 in989.5 mb - 0.00 in0.0 mm 0.06 in1.5 mm
07:05 AM 47.3°F8.5°C 44.5°F6.9°C 90% 5.8 mph WNW9.3 kmh WNW 9.2 mph14.8 kmh 29.22 in989.5 mb - 0.00 in0.0 mm 0.06 in1.5 mm
07:10 AM 47.3°F8.5°C 44.2°F6.8°C 89% 4.6 mph W7.4 kmh W 9.2 mph14.8 kmh 29.23 in989.8 mb - 0.00 in0.0 mm 0.06 in1.5 mm
07:15 AM 47.4°F8.6°C 44.3°F6.8°C 89% 5.8 mph WNW9.3 kmh WNW 5.8 mph9.3 kmh 29.23 in989.8 mb - 0.00 in0.0 mm 0.06 in1.5 mm
07:20 AM 47.5°F8.6°C 44.4°F6.9°C 89% 5.8 mph WNW9.3 kmh WNW 8.1 mph13.0 kmh 29.23 in989.8 mb - 0.00 in0.0 mm 0.06 in1.5 mm
07:25 AM 47.5°F8.6°C 44.4°F6.9°C 89% 5.8 mph WNW9.3 kmh WNW 11.5 mph18.5 kmh 29.23 in989.8 mb - 0.00 in0.0 mm 0.06 in1.5 mm
07:30 AM 47.6°F8.7°C 44.5°F6.9°C 89% 4.6 mph WNW7.4 kmh WNW 10.4 mph16.7 kmh 29.23 in989.8 mb - 0.00 in0.0 mm 0.06 in1.5 mm
07:35 AM 47.7°F8.7°C 44.6°F7.0°C 89% 4.6 mph WNW7.4 kmh WNW 9.2 mph14.8 kmh 29.23 in989.8 mb - 0.00 in0.0 mm 0.06 in1.5 mm
07:40 AM 47.9°F8.8°C 44.8°F7.1°C 89% 5.8 mph WNW9.3 kmh WNW 11.5 mph18.5 kmh 29.24 in990.2 mb - 0.00 in0.0 mm 0.06 in1.5 mm
07:45 AM 48.0°F8.9°C 44.6°F7.0°C 88% 5.8 mph W9.3 kmh W 8.1 mph13.0 kmh 29.24 in990.2 mb - 0.00 in0.0 mm 0.06 in1.5 mm
07:50 AM 48.2°F9.0°C 44.8°F7.1°C 88% 5.8 mph WNW9.3 kmh WNW 11.5 mph18.5 kmh 29.24 in990.2 mb - 0.00 in0.0 mm 0.06 in1.5 mm
07:55 AM 48.4°F9.1°C 45.0°F7.2°C 88% 4.6 mph W7.4 kmh W 9.2 mph14.8 kmh 29.24 in990.2 mb - 0.00 in0.0 mm 0.06 in1.5 mm
08:00 AM 48.5°F9.2°C 45.1°F7.3°C 88% 5.8 mph WNW9.3 kmh WNW 9.2 mph14.8 kmh 29.24 in990.2 mb - 0.00 in0.0 mm 0.06 in1.5 mm
08:05 AM 48.7°F9.3°C 45.3°F7.4°C 88% 4.6 mph WNW7.4 kmh WNW 11.5 mph18.5 kmh 29.24 in990.2 mb - 0.00 in0.0 mm 0.06 in1.5 mm
08:10 AM 48.9°F9.4°C 45.5°F7.5°C 88% 3.5 mph NW5.6 kmh NW 5.8 mph9.3 kmh 29.25 in990.5 mb - 0.00 in0.0 mm 0.06 in1.5 mm
08:15 AM 49.0°F9.4°C 45.6°F7.6°C 88% 5.8 mph WNW9.3 kmh WNW 11.5 mph18.5 kmh 29.25 in990.5 mb - 0.00 in0.0 mm 0.06 in1.5 mm
08:20 AM 49.1°F9.5°C 45.7°F7.6°C 88% 5.8 mph WNW9.3 kmh WNW 9.2 mph14.8 kmh 29.25 in990.5 mb - 0.00 in0.0 mm 0.06 in1.5 mm
08:25 AM 49.2°F9.6°C 45.8°F7.7°C 88% 5.8 mph WNW9.3 kmh WNW 11.5 mph18.5 kmh 29.25 in990.5 mb - 0.00 in0.0 mm 0.06 in1.5 mm
08:30 AM 49.4°F9.7°C 46.0°F7.8°C 88% 5.8 mph WNW9.3 kmh WNW 10.4 mph16.7 kmh 29.26 in990.9 mb - 0.00 in0.0 mm 0.06 in1.5 mm
08:35 AM 49.5°F9.7°C 46.1°F7.8°C 88% 4.6 mph W7.4 kmh W 9.2 mph14.8 kmh 29.26 in990.9 mb - 0.00 in0.0 mm 0.06 in1.5 mm
08:40 AM 49.6°F9.8°C 46.1°F7.8°C 88% 6.9 mph W11.1 kmh W 9.2 mph14.8 kmh 29.26 in990.9 mb - 0.00 in0.0 mm 0.06 in1.5 mm
08:45 AM 49.7°F9.8°C 46.2°F7.9°C 88% 3.5 mph W5.6 kmh W 8.1 mph13.0 kmh 29.26 in990.9 mb - 0.00 in0.0 mm 0.06 in1.5 mm
08:50 AM 49.8°F9.9°C 46.4°F8.0°C 88% 5.8 mph W9.3 kmh W 8.1 mph13.0 kmh 29.26 in990.9 mb - 0.00 in0.0 mm 0.06 in1.5 mm
08:55 AM 49.9°F9.9°C 46.4°F8.0°C 88% 5.8 mph W9.3 kmh W 11.5 mph18.5 kmh 29.27 in991.2 mb - 0.00 in0.0 mm 0.06 in1.5 mm
09:00 AM 50.0°F10.0°C 46.5°F8.1°C 88% 5.8 mph W9.3 kmh W 8.1 mph13.0 kmh 29.27 in991.2 mb - 0.01 in0.3 mm 0.07 in1.8 mm
09:05 AM 50.1°F10.1°C 46.7°F8.2°C 88% 4.6 mph W7.4 kmh W 10.4 mph16.7 kmh 29.27 in991.2 mb - 0.00 in0.0 mm 0.07 in1.8 mm
09:10 AM 50.3°F10.2°C 46.9°F8.3°C 88% 2.3 mph W3.7 kmh W 6.9 mph11.1 kmh 29.27 in991.2 mb - 0.00 in0.0 mm 0.07 in1.8 mm
09:15 AM 50.6°F10.3°C 47.2°F8.4°C 88% 3.5 mph W5.6 kmh W 6.9 mph11.1 kmh 29.27 in991.2 mb - 0.00 in0.0 mm 0.07 in1.8 mm
09:20 AM 50.7°F10.4°C 47.3°F8.5°C 88% 4.6 mph WSW7.4 kmh WSW 8.1 mph13.0 kmh 29.27 in991.2 mb - 0.00 in0.0 mm 0.07 in1.8 mm
09:25 AM 50.8°F10.4°C 47.4°F8.6°C 88% 5.8 mph W9.3 kmh W 11.5 mph18.5 kmh 29.27 in991.2 mb - 0.00 in0.0 mm 0.07 in1.8 mm
09:30 AM 51.0°F10.6°C 47.6°F8.7°C 88% 4.6 mph W7.4 kmh W 9.2 mph14.8 kmh 29.27 in991.2 mb - 0.00 in0.0 mm 0.07 in1.8 mm
09:35 AM 51.2°F10.7°C 47.5°F8.6°C 87% 4.6 mph W7.4 kmh W 6.9 mph11.1 kmh 29.28 in991.5 mb - 0.00 in0.0 mm 0.07 in1.8 mm
09:40 AM 51.3°F10.7°C 47.6°F8.7°C 87% 3.5 mph WSW5.6 kmh WSW 6.9 mph11.1 kmh 29.28 in991.5 mb - 0.00 in0.0 mm 0.07 in1.8 mm
09:45 AM 51.4°F10.8°C 47.6°F8.7°C 87% 4.6 mph WSW7.4 kmh WSW 8.1 mph13.0 kmh 29.28 in991.5 mb - 0.00 in0.0 mm 0.07 in1.8 mm
09:50 AM 51.4°F10.8°C 47.3°F8.5°C 86% 5.8 mph WSW9.3 kmh WSW 6.9 mph11.1 kmh 29.28 in991.5 mb - 0.00 in0.0 mm 0.07 in1.8 mm
09:55 AM 51.6°F10.9°C 47.6°F8.7°C 86% 3.5 mph WSW5.6 kmh WSW 6.9 mph11.1 kmh 29.28 in991.5 mb - 0.00 in0.0 mm 0.07 in1.8 mm
10:00 AM 51.9°F11.1°C 47.9°F8.8°C 86% 4.6 mph WSW7.4 kmh WSW 8.1 mph13.0 kmh 29.28 in991.5 mb - 0.00 in0.0 mm 0.07 in1.8 mm
10:05 AM 52.1°F11.2°C 47.7°F8.7°C 85% 4.6 mph W7.4 kmh W 8.1 mph13.0 kmh 29.28 in991.5 mb - 0.00 in0.0 mm 0.07 in1.8 mm
10:10 AM 52.3°F11.3°C 48.0°F8.9°C 85% 5.8 mph WSW9.3 kmh WSW 11.5 mph18.5 kmh 29.28 in991.5 mb - 0.00 in0.0 mm 0.07 in1.8 mm
10:15 AM 52.6°F11.4°C 48.2°F9.0°C 85% 5.8 mph W9.3 kmh W 10.4 mph16.7 kmh 29.29 in991.9 mb - 0.00 in0.0 mm 0.07 in1.8 mm
10:20 AM 52.8°F11.6°C 48.4°F9.1°C 85% 5.8 mph W9.3 kmh W 11.5 mph18.5 kmh 29.28 in991.5 mb - 0.00 in0.0 mm 0.07 in1.8 mm
10:25 AM 53.0°F11.7°C 48.3°F9.1°C 84% 3.5 mph WSW5.6 kmh WSW 6.9 mph11.1 kmh 29.29 in991.9 mb - 0.00 in0.0 mm 0.07 in1.8 mm
10:30 AM 53.2°F11.8°C 48.5°F9.2°C 84% 6.9 mph W11.1 kmh W 10.4 mph16.7 kmh 29.29 in991.9 mb - 0.00 in0.0 mm 0.07 in1.8 mm
10:35 AM 53.3°F11.8°C 48.3°F9.1°C 83% 5.8 mph W9.3 kmh W 10.4 mph16.7 kmh 29.29 in991.9 mb - 0.00 in0.0 mm 0.07 in1.8 mm
10:40 AM 53.4°F11.9°C 48.4°F9.1°C 83% 6.9 mph WSW11.1 kmh WSW 11.5 mph18.5 kmh 29.29 in991.9 mb - 0.00 in0.0 mm 0.07 in1.8 mm
10:45 AM 53.3°F11.8°C 47.9°F8.8°C 82% 8.1 mph W13.0 kmh W 11.5 mph18.5 kmh 29.29 in991.9 mb - 0.00 in0.0 mm 0.07 in1.8 mm
10:50 AM 53.3°F11.8°C 48.3°F9.1°C 83% 5.8 mph W9.3 kmh W 9.2 mph14.8 kmh 29.29 in991.9 mb - 0.00 in0.0 mm 0.07 in1.8 mm
10:55 AM 53.4°F11.9°C 48.0°F8.9°C 82% 6.9 mph W11.1 kmh W 9.2 mph14.8 kmh 29.29 in991.9 mb - 0.00 in0.0 mm 0.07 in1.8 mm
11:00 AM 53.5°F11.9°C 47.8°F8.8°C 81% 8.1 mph W13.0 kmh W 11.5 mph18.5 kmh 29.29 in991.9 mb - 0.00 in0.0 mm 0.07 in1.8 mm
11:05 AM 53.6°F12.0°C 47.9°F8.8°C 81% 4.6 mph W7.4 kmh W 9.2 mph14.8 kmh 29.29 in991.9 mb - 0.00 in0.0 mm 0.07 in1.8 mm
11:10 AM 53.9°F12.2°C 48.2°F9.0°C 81% 5.8 mph W9.3 kmh W 11.5 mph18.5 kmh 29.29 in991.9 mb - 0.00 in0.0 mm 0.07 in1.8 mm
11:15 AM 54.1°F12.3°C 48.1°F8.9°C 80% 5.8 mph W9.3 kmh W 9.2 mph14.8 kmh 29.30 in992.2 mb - 0.00 in0.0 mm 0.07 in1.8 mm
11:20 AM 54.2°F12.3°C 47.9°F8.8°C 79% 5.8 mph WSW9.3 kmh WSW 10.4 mph16.7 kmh 29.30 in992.2 mb - 0.00 in0.0 mm 0.07 in1.8 mm
11:25 AM 54.4°F12.4°C 48.0°F8.9°C 79% 9.2 mph W14.8 kmh W 11.5 mph18.5 kmh 29.30 in992.2 mb - 0.00 in0.0 mm 0.07 in1.8 mm
11:30 AM 54.5°F12.5°C 48.1°F8.9°C 79% 6.9 mph WSW11.1 kmh WSW 11.5 mph18.5 kmh 29.30 in992.2 mb - 0.00 in0.0 mm 0.07 in1.8 mm
11:35 AM 54.3°F12.4°C 47.9°F8.8°C 79% 6.9 mph WSW11.1 kmh WSW 10.4 mph16.7 kmh 29.30 in992.2 mb - 0.00 in0.0 mm 0.07 in1.8 mm
11:40 AM 54.4°F12.4°C 47.7°F8.7°C 78% 9.2 mph WSW14.8 kmh WSW 12.7 mph20.4 kmh 29.30 in992.2 mb - 0.00 in0.0 mm 0.07 in1.8 mm
11:45 AM 54.4°F12.4°C 47.7°F8.7°C 78% 5.8 mph WSW9.3 kmh WSW 11.5 mph18.5 kmh 29.30 in992.2 mb - 0.00 in0.0 mm 0.07 in1.8 mm
11:50 AM 54.6°F12.6°C 48.2°F9.0°C 79% 4.6 mph W7.4 kmh W 6.9 mph11.1 kmh 29.30 in992.2 mb - 0.00 in0.0 mm 0.07 in1.8 mm
11:55 AM 54.8°F12.7°C 48.1°F8.9°C 78% 6.9 mph WSW11.1 kmh WSW 12.7 mph20.4 kmh 29.30 in992.2 mb - 0.00 in0.0 mm 0.07 in1.8 mm
12:00 PM 55.0°F12.8°C 47.9°F8.8°C 77% 6.9 mph WSW11.1 kmh WSW 11.5 mph18.5 kmh 29.31 in992.6 mb - 0.00 in0.0 mm 0.07 in1.8 mm
12:05 PM 55.0°F12.8°C 47.6°F8.7°C 76% 5.8 mph W9.3 kmh W 9.2 mph14.8 kmh 29.31 in992.6 mb - 0.00 in0.0 mm 0.07 in1.8 mm
12:10 PM 55.2°F12.9°C 48.1°F8.9°C 77% 5.8 mph WSW9.3 kmh WSW 9.2 mph14.8 kmh 29.31 in992.6 mb - 0.00 in0.0 mm 0.07 in1.8 mm
12:15 PM 55.0°F12.8°C 47.3°F8.5°C 75% 5.8 mph WSW9.3 kmh WSW 11.5 mph18.5 kmh 29.31 in992.6 mb - 0.00 in0.0 mm 0.07 in1.8 mm
12:20 PM 55.0°F12.8°C 47.9°F8.8°C 77% 6.9 mph WSW11.1 kmh WSW 11.5 mph18.5 kmh 29.31 in992.6 mb - 0.00 in0.0 mm 0.07 in1.8 mm
12:25 PM 55.0°F12.8°C 47.6°F8.7°C 76% 5.8 mph WSW9.3 kmh WSW 10.4 mph16.7 kmh 29.31 in992.6 mb - 0.00 in0.0 mm 0.07 in1.8 mm
12:30 PM 55.1°F12.8°C 47.7°F8.7°C 76% 5.8 mph W9.3 kmh W 11.5 mph18.5 kmh 29.31 in992.6 mb - 0.00 in0.0 mm 0.07 in1.8 mm
12:35 PM 55.4°F13.0°C 47.9°F8.8°C 76% 4.6 mph WSW7.4 kmh WSW 5.8 mph9.3 kmh 29.31 in992.6 mb - 0.00 in0.0 mm 0.07 in1.8 mm
12:40 PM 55.5°F13.1°C 47.7°F8.7°C 75% 6.9 mph WSW11.1 kmh WSW 11.5 mph18.5 kmh 29.32 in992.9 mb - 0.00 in0.0 mm 0.07 in1.8 mm
12:45 PM 55.5°F13.1°C 47.3°F8.5°C 74% 4.6 mph WNW7.4 kmh WNW 6.9 mph11.1 kmh 29.32 in992.9 mb - 0.00 in0.0 mm 0.07 in1.8 mm
12:50 PM 55.7°F13.2°C 47.9°F8.8°C 75% 3.5 mph WNW5.6 kmh WNW 9.2 mph14.8 kmh 29.32 in992.9 mb - 0.00 in0.0 mm 0.07 in1.8 mm
12:55 PM 55.9°F13.3°C 47.7°F8.7°C 74% 5.8 mph W9.3 kmh W 11.5 mph18.5 kmh 29.32 in992.9 mb - 0.00 in0.0 mm 0.07 in1.8 mm
01:00 PM 56.0°F13.3°C 47.5°F8.6°C 73% 4.6 mph W7.4 kmh W 8.1 mph13.0 kmh 29.32 in992.9 mb - 0.00 in0.0 mm 0.07 in1.8 mm
01:05 PM 56.1°F13.4°C 47.6°F8.7°C 73% 5.8 mph W9.3 kmh W 8.1 mph13.0 kmh 29.32 in992.9 mb - 0.00 in0.0 mm 0.07 in1.8 mm
01:10 PM 56.3°F13.5°C 47.7°F8.7°C 73% 5.8 mph WSW9.3 kmh WSW 8.1 mph13.0 kmh 29.32 in992.9 mb - 0.00 in0.0 mm 0.07 in1.8 mm
01:15 PM 56.5°F13.6°C 47.9°F8.8°C 73% 6.9 mph WSW11.1 kmh WSW 11.5 mph18.5 kmh 29.32 in992.9 mb - 0.00 in0.0 mm 0.07 in1.8 mm
01:20 PM 56.6°F13.7°C 48.0°F8.9°C 73% 5.8 mph W9.3 kmh W 10.4 mph16.7 kmh 29.32 in992.9 mb - 0.00 in0.0 mm 0.07 in1.8 mm
01:25 PM 56.8°F13.8°C 48.2°F9.0°C 73% 6.9 mph WNW11.1 kmh WNW 10.4 mph16.7 kmh 29.32 in992.9 mb - 0.00 in0.0 mm 0.07 in1.8 mm
01:30 PM 57.1°F13.9°C 48.5°F9.2°C 73% 5.8 mph WSW9.3 kmh WSW 11.5 mph18.5 kmh 29.32 in992.9 mb - 0.00 in0.0 mm 0.07 in1.8 mm
01:35 PM 57.3°F14.1°C 48.4°F9.1°C 72% 4.6 mph W7.4 kmh W 11.5 mph18.5 kmh 29.32 in992.9 mb - 0.00 in0.0 mm 0.07 in1.8 mm
01:40 PM 57.4°F14.1°C 48.4°F9.1°C 72% 6.9 mph WSW11.1 kmh WSW 11.5 mph18.5 kmh 29.32 in992.9 mb - 0.00 in0.0 mm 0.07 in1.8 mm
01:45 PM 57.4°F14.1°C 48.4°F9.1°C 72% 5.8 mph W9.3 kmh W 8.1 mph13.0 kmh 29.32 in992.9 mb - 0.00 in0.0 mm 0.07 in1.8 mm
01:50 PM 57.3°F14.1°C 48.3°F9.1°C 72% 5.8 mph W9.3 kmh W 10.4 mph16.7 kmh 29.32 in992.9 mb - 0.00 in0.0 mm 0.07 in1.8 mm
01:55 PM 57.2°F14.0°C 47.9°F8.8°C 71% 6.9 mph WSW11.1 kmh WSW 10.4 mph16.7 kmh 29.32 in992.9 mb - 0.00 in0.0 mm 0.07 in1.8 mm
02:00 PM 56.9°F13.8°C 47.6°F8.7°C 71% 8.1 mph WSW13.0 kmh WSW 15.0 mph24.1 kmh 29.32 in992.9 mb - 0.00 in0.0 mm 0.07 in1.8 mm
02:05 PM 56.9°F13.8°C 48.0°F8.9°C 72% 6.9 mph W11.1 kmh W 9.2 mph14.8 kmh 29.32 in992.9 mb - 0.00 in0.0 mm 0.07 in1.8 mm
02:10 PM 56.8°F13.8°C 48.3°F9.1°C 73% 8.1 mph W13.0 kmh W 12.7 mph20.4 kmh 29.33 in993.2 mb - 0.00 in0.0 mm 0.07 in1.8 mm
02:15 PM 56.6°F13.7°C 48.4°F9.1°C 74% 6.9 mph WSW11.1 kmh WSW 9.2 mph14.8 kmh 29.33 in993.2 mb - 0.00 in0.0 mm 0.07 in1.8 mm
02:20 PM 56.4°F13.6°C 48.2°F9.0°C 74% 5.8 mph W9.3 kmh W 10.4 mph16.7 kmh 29.33 in993.2 mb - 0.00 in0.0 mm 0.07 in1.8 mm
02:25 PM 56.4°F13.6°C 47.8°F8.8°C 73% 5.8 mph W9.3 kmh W 10.4 mph16.7 kmh 29.33 in993.2 mb - 0.00 in0.0 mm 0.07 in1.8 mm
02:30 PM 56.4°F13.6°C 47.8°F8.8°C 73% 3.5 mph WSW5.6 kmh WSW 6.9 mph11.1 kmh 29.33 in993.2 mb - 0.00 in0.0 mm 0.07 in1.8 mm
02:35 PM 56.6°F13.7°C 48.0°F8.9°C 73% 5.8 mph W9.3 kmh W 10.4 mph16.7 kmh 29.33 in993.2 mb - 0.00 in0.0 mm 0.07 in1.8 mm
02:40 PM 56.7°F13.7°C 47.8°F8.8°C 72% 4.6 mph WSW7.4 kmh WSW 8.1 mph13.0 kmh 29.33 in993.2 mb - 0.00 in0.0 mm 0.07 in1.8 mm
02:45 PM 56.8°F13.8°C 47.9°F8.8°C 72% 5.8 mph WSW9.3 kmh WSW 8.1 mph13.0 kmh 29.33 in993.2 mb - 0.00 in0.0 mm 0.07 in1.8 mm
02:50 PM 56.9°F13.8°C 48.0°F8.9°C 72% 5.8 mph W9.3 kmh W 6.9 mph11.1 kmh 29.33 in993.2 mb - 0.00 in0.0 mm 0.07 in1.8 mm
02:55 PM 56.9°F13.8°C 48.0°F8.9°C 72% 2.3 mph WSW3.7 kmh WSW 4.6 mph7.4 kmh 29.33 in993.2 mb - 0.00 in0.0 mm 0.07 in1.8 mm
03:00 PM 57.1°F13.9°C 48.2°F9.0°C 72% 3.5 mph WSW5.6 kmh WSW 6.9 mph11.1 kmh 29.33 in993.2 mb - 0.00 in0.0 mm 0.07 in1.8 mm
03:05 PM 57.2°F14.0°C 48.6°F9.2°C 73% 2.3 mph WSW3.7 kmh WSW 9.2 mph14.8 kmh 29.34 in993.6 mb - 0.00 in0.0 mm 0.07 in1.8 mm
03:10 PM 57.2°F14.0°C 48.3°F9.1°C 72% 3.5 mph W5.6 kmh W 6.9 mph11.1 kmh 29.34 in993.6 mb - 0.00 in0.0 mm 0.07 in1.8 mm
03:15 PM 57.3°F14.1°C 48.7°F9.3°C 73% 3.5 mph W5.6 kmh W 8.1 mph13.0 kmh 29.34 in993.6 mb - 0.00 in0.0 mm 0.07 in1.8 mm
03:20 PM 57.2°F14.0°C 48.3°F9.1°C 72% 5.8 mph W9.3 kmh W 9.2 mph14.8 kmh 29.34 in993.6 mb - 0.00 in0.0 mm 0.07 in1.8 mm
03:25 PM 57.1°F13.9°C 47.8°F8.8°C 71% 4.6 mph WSW7.4 kmh WSW 9.2 mph14.8 kmh 29.34 in993.6 mb - 0.00 in0.0 mm 0.07 in1.8 mm
03:30 PM 57.0°F13.9°C 48.0°F8.9°C 72% 8.1 mph WSW13.0 kmh WSW 13.8 mph22.2 kmh 29.34 in993.6 mb - 0.00 in0.0 mm 0.07 in1.8 mm
03:35 PM 56.7°F13.7°C 48.2°F9.0°C 73% 5.8 mph SW9.3 kmh SW 10.4 mph16.7 kmh 29.34 in993.6 mb - 0.00 in0.0 mm 0.07 in1.8 mm
03:40 PM 56.3°F13.5°C 47.4°F8.6°C 72% 4.6 mph WSW7.4 kmh WSW 9.2 mph14.8 kmh 29.34 in993.6 mb - 0.00 in0.0 mm 0.07 in1.8 mm
03:45 PM 55.9°F13.3°C 47.4°F8.6°C 73% 8.1 mph WSW13.0 kmh WSW 11.5 mph18.5 kmh 29.34 in993.6 mb - 0.00 in0.0 mm 0.07 in1.8 mm
03:50 PM 55.7°F13.2°C 47.2°F8.4°C 73% 5.8 mph WSW9.3 kmh WSW 9.2 mph14.8 kmh 29.34 in993.6 mb - 0.00 in0.0 mm 0.07 in1.8 mm
03:55 PM 55.5°F13.1°C 47.0°F8.3°C 73% 3.5 mph W5.6 kmh W 6.9 mph11.1 kmh 29.34 in993.6 mb - 0.00 in0.0 mm 0.07 in1.8 mm
04:00 PM 55.5°F13.1°C 47.3°F8.5°C 74% 3.5 mph W5.6 kmh W 6.9 mph11.1 kmh 29.34 in993.6 mb - 0.00 in0.0 mm 0.07 in1.8 mm
04:05 PM 55.6°F13.1°C 47.4°F8.6°C 74% 4.6 mph W7.4 kmh W 6.9 mph11.1 kmh 29.34 in993.6 mb - 0.00 in0.0 mm 0.07 in1.8 mm
04:10 PM 55.5°F13.1°C 47.0°F8.3°C 73% 4.6 mph W7.4 kmh W 9.2 mph14.8 kmh 29.34 in993.6 mb - 0.00 in0.0 mm 0.07 in1.8 mm
04:15 PM 55.4°F13.0°C 46.9°F8.3°C 73% 4.6 mph W7.4 kmh W 10.4 mph16.7 kmh 29.34 in993.6 mb - 0.00 in0.0 mm 0.07 in1.8 mm
04:20 PM 55.3°F12.9°C 46.8°F8.2°C 73% 3.5 mph W5.6 kmh W 5.8 mph9.3 kmh 29.34 in993.6 mb - 0.00 in0.0 mm 0.07 in1.8 mm
04:25 PM 55.3°F12.9°C 47.2°F8.4°C 74% 3.5 mph WSW5.6 kmh WSW 5.8 mph9.3 kmh 29.34 in993.6 mb - 0.00 in0.0 mm 0.07 in1.8 mm
04:30 PM 55.4°F13.0°C 47.2°F8.4°C 74% 2.3 mph W3.7 kmh W 8.1 mph13.0 kmh 29.35 in993.9 mb - 0.00 in0.0 mm 0.07 in1.8 mm
04:35 PM 55.4°F13.0°C 47.2°F8.4°C 74% 3.5 mph W5.6 kmh W 6.9 mph11.1 kmh 29.35 in993.9 mb - 0.00 in0.0 mm 0.07 in1.8 mm
04:40 PM 55.5°F13.1°C 47.3°F8.5°C 74% 2.3 mph W3.7 kmh W 5.8 mph9.3 kmh 29.35 in993.9 mb - 0.00 in0.0 mm 0.07 in1.8 mm
04:45 PM 55.6°F13.1°C 47.4°F8.6°C 74% 2.3 mph W3.7 kmh W 3.5 mph5.6 kmh 29.35 in993.9 mb - 0.00 in0.0 mm 0.07 in1.8 mm
04:50 PM 55.7°F13.2°C 47.9°F8.8°C 75% 3.5 mph WNW5.6 kmh WNW 4.6 mph7.4 kmh 29.35 in993.9 mb - 0.00 in0.0 mm 0.07 in1.8 mm
04:55 PM 55.8°F13.2°C 47.6°F8.7°C 74% 5.8 mph W9.3 kmh W 9.2 mph14.8 kmh 29.35 in993.9 mb - 0.00 in0.0 mm 0.07 in1.8 mm
05:00 PM 55.8°F13.2°C 47.7°F8.7°C 74% 2.3 mph WNW3.7 kmh WNW 3.5 mph5.6 kmh 29.35 in993.9 mb - 0.00 in0.0 mm 0.07 in1.8 mm
05:05 PM 55.9°F13.3°C 48.1°F8.9°C 75% 2.3 mph W3.7 kmh W 3.5 mph5.6 kmh 29.35 in993.9 mb - 0.00 in0.0 mm 0.07 in1.8 mm
05:10 PM 55.9°F13.3°C 47.7°F8.7°C 74% 2.3 mph WNW3.7 kmh WNW 3.5 mph5.6 kmh 29.35 in993.9 mb - 0.00 in0.0 mm 0.07 in1.8 mm
05:15 PM 56.0°F13.3°C 48.2°F9.0°C 75% 4.6 mph WSW7.4 kmh WSW 5.8 mph9.3 kmh 29.35 in993.9 mb - 0.00 in0.0 mm 0.07 in1.8 mm
05:20 PM 55.9°F13.3°C 48.1°F8.9°C 75% 2.3 mph WSW3.7 kmh WSW 3.5 mph5.6 kmh 29.35 in993.9 mb - 0.00 in0.0 mm 0.07 in1.8 mm
05:25 PM 55.9°F13.3°C 48.1°F8.9°C 75% 2.3 mph WSW3.7 kmh WSW 5.8 mph9.3 kmh 29.36 in994.2 mb - 0.00 in0.0 mm 0.07 in1.8 mm
05:30 PM 55.7°F13.2°C 47.9°F8.8°C 75% 2.3 mph W3.7 kmh W 3.5 mph5.6 kmh 29.36 in994.2 mb - 0.00 in0.0 mm 0.07 in1.8 mm
05:35 PM 55.6°F13.1°C 47.8°F8.8°C 75% 1.2 mph WSW1.9 kmh WSW 3.5 mph5.6 kmh 29.36 in994.2 mb - 0.00 in0.0 mm 0.07 in1.8 mm
05:40 PM 55.5°F13.1°C 47.7°F8.7°C 75% 2.3 mph WSW3.7 kmh WSW 3.5 mph5.6 kmh 29.36 in994.2 mb - 0.00 in0.0 mm 0.07 in1.8 mm
05:45 PM 55.3°F12.9°C 47.5°F8.6°C 75% 1.2 mph WSW1.9 kmh WSW 2.3 mph3.7 kmh 29.36 in994.2 mb - 0.00 in0.0 mm 0.07 in1.8 mm
05:50 PM 55.2°F12.9°C 47.8°F8.8°C 76% Calm Calm -- 29.36 in994.2 mb - 0.00 in0.0 mm 0.07 in1.8 mm
05:55 PM 55.1°F12.8°C 47.3°F8.5°C 75% Calm Calm -- 29.36 in994.2 mb - 0.00 in0.0 mm 0.07 in1.8 mm
06:00 PM 54.5°F12.5°C 46.4°F8.0°C 74% 4.6 mph ENE7.4 kmh ENE 6.9 mph11.1 kmh 29.37 in994.6 mb - 0.00 in0.0 mm 0.07 in1.8 mm
06:05 PM 53.2°F11.8°C 45.5°F7.5°C 75% 6.9 mph E11.1 kmh E 10.4 mph16.7 kmh 29.37 in994.6 mb - 0.00 in0.0 mm 0.07 in1.8 mm
06:10 PM 52.2°F11.2°C 44.9°F7.2°C 76% 6.9 mph E11.1 kmh E 9.2 mph14.8 kmh 29.37 in994.6 mb - 0.00 in0.0 mm 0.07 in1.8 mm
06:15 PM 51.7°F10.9°C 45.0°F7.2°C 78% 5.8 mph E9.3 kmh E 5.8 mph9.3 kmh 29.38 in994.9 mb - 0.00 in0.0 mm 0.07 in1.8 mm
06:20 PM 51.4°F10.8°C 45.1°F7.3°C 79% 4.6 mph E7.4 kmh E 4.6 mph7.4 kmh 29.38 in994.9 mb - 0.00 in0.0 mm 0.07 in1.8 mm
06:25 PM 51.3°F10.7°C 45.3°F7.4°C 80% 2.3 mph ESE3.7 kmh ESE 3.5 mph5.6 kmh 29.38 in994.9 mb - 0.00 in0.0 mm 0.07 in1.8 mm
06:30 PM 51.3°F10.7°C 45.3°F7.4°C 80% 2.3 mph E3.7 kmh E 3.5 mph5.6 kmh 29.38 in994.9 mb - 0.00 in0.0 mm 0.07 in1.8 mm
06:35 PM 51.2°F10.7°C 45.6°F7.6°C 81% 2.3 mph ESE3.7 kmh ESE 3.5 mph5.6 kmh 29.38 in994.9 mb - 0.00 in0.0 mm 0.07 in1.8 mm
06:40 PM 51.0°F10.6°C 45.4°F7.4°C 81% 2.3 mph E3.7 kmh E 3.5 mph5.6 kmh 29.39 in995.3 mb - 0.00 in0.0 mm 0.07 in1.8 mm
06:45 PM 50.8°F10.4°C 45.2°F7.3°C 81% 2.3 mph E3.7 kmh E 3.5 mph5.6 kmh 29.39 in995.3 mb - 0.00 in0.0 mm 0.07 in1.8 mm
06:50 PM 50.8°F10.4°C 45.5°F7.5°C 82% 2.3 mph E3.7 kmh E 3.5 mph5.6 kmh 29.39 in995.3 mb - 0.00 in0.0 mm 0.07 in1.8 mm
06:55 PM 50.7°F10.4°C 45.4°F7.4°C 82% Calm Calm -- 29.39 in995.3 mb - 0.00 in0.0 mm 0.07 in1.8 mm
07:00 PM 50.6°F10.3°C 45.6°F7.6°C 83% 2.3 mph NE3.7 kmh NE 3.5 mph5.6 kmh 29.40 in995.6 mb - 0.01 in0.3 mm 0.07 in1.8 mm
07:05 PM 50.5°F10.3°C 45.9°F7.7°C 84% 5.8 mph NNW9.3 kmh NNW 11.5 mph18.5 kmh 29.40 in995.6 mb - 0.05 in1.3 mm 0.12 in3.0 mm
07:40 PM 49.8°F9.9°C 44.8°F7.1°C 83% 5.8 mph NW9.3 kmh NW 8.1 mph13.0 kmh 29.41 in995.9 mb - 0.02 in0.5 mm 0.17 in4.3 mm
07:45 PM 49.6°F9.8°C 44.6°F7.0°C 83% 5.8 mph WNW9.3 kmh WNW 6.9 mph11.1 kmh 29.41 in995.9 mb - 0.00 in0.0 mm 0.17 in4.3 mm
07:50 PM 49.4°F9.7°C 44.8°F7.1°C 84% 5.8 mph NW9.3 kmh NW 9.2 mph14.8 kmh 29.42 in996.3 mb - 0.00 in0.0 mm 0.17 in4.3 mm
07:55 PM 49.3°F9.6°C 44.7°F7.1°C 84% 3.5 mph NW5.6 kmh NW 4.6 mph7.4 kmh 29.42 in996.3 mb - 0.00 in0.0 mm 0.17 in4.3 mm
08:00 PM 49.2°F9.6°C 44.6°F7.0°C 84% 4.6 mph NW7.4 kmh NW 10.4 mph16.7 kmh 29.42 in996.3 mb - 0.00 in0.0 mm 0.17 in4.3 mm
08:05 PM 49.3°F9.6°C 44.4°F6.9°C 83% 2.3 mph N3.7 kmh N 3.5 mph5.6 kmh 29.42 in996.3 mb - 0.00 in0.0 mm 0.17 in4.3 mm
08:10 PM 49.4°F9.7°C 44.5°F6.9°C 83% 4.6 mph W7.4 kmh W 9.2 mph14.8 kmh 29.42 in996.3 mb - 0.00 in0.0 mm 0.17 in4.3 mm
08:15 PM 49.3°F9.6°C 44.3°F6.8°C 83% 3.5 mph WNW5.6 kmh WNW 8.1 mph13.0 kmh 29.42 in996.3 mb - 0.00 in0.0 mm 0.17 in4.3 mm
08:20 PM 49.2°F9.6°C 44.6°F7.0°C 84% 4.6 mph WNW7.4 kmh WNW 3.5 mph5.6 kmh 29.43 in996.6 mb - 0.00 in0.0 mm 0.17 in4.3 mm
08:25 PM 49.1°F9.5°C 44.5°F6.9°C 84% 4.6 mph NNW7.4 kmh NNW 6.9 mph11.1 kmh 29.43 in996.6 mb - 0.00 in0.0 mm 0.17 in4.3 mm
08:30 PM 49.2°F9.6°C 44.3°F6.8°C 83% 2.3 mph NW3.7 kmh NW 3.5 mph5.6 kmh 29.43 in996.6 mb - 0.00 in0.0 mm 0.17 in4.3 mm
08:35 PM 49.2°F9.6°C 44.3°F6.8°C 83% 2.3 mph NW3.7 kmh NW 3.5 mph5.6 kmh 29.43 in996.6 mb - 0.00 in0.0 mm 0.17 in4.3 mm
08:40 PM 49.2°F9.6°C 44.3°F6.8°C 83% 3.5 mph NW5.6 kmh NW 4.6 mph7.4 kmh 29.43 in996.6 mb - 0.00 in0.0 mm 0.17 in4.3 mm
08:45 PM 49.1°F9.5°C 44.2°F6.8°C 83% 2.3 mph NW3.7 kmh NW 4.6 mph7.4 kmh 29.43 in996.6 mb - 0.00 in0.0 mm 0.17 in4.3 mm
08:50 PM 49.1°F9.5°C 44.2°F6.8°C 83% 2.3 mph NW3.7 kmh NW 3.5 mph5.6 kmh 29.43 in996.6 mb - 0.00 in0.0 mm 0.17 in4.3 mm
08:55 PM 49.1°F9.5°C 44.2°F6.8°C 83% 3.5 mph NNW5.6 kmh NNW 3.5 mph5.6 kmh 29.43 in996.6 mb - 0.00 in0.0 mm 0.17 in4.3 mm
09:00 PM 49.1°F9.5°C 44.2°F6.8°C 83% 3.5 mph N5.6 kmh N 5.8 mph9.3 kmh 29.44 in997.0 mb - 0.00 in0.0 mm 0.17 in4.3 mm
09:05 PM 49.2°F9.6°C 44.3°F6.8°C 83% 2.3 mph NW3.7 kmh NW 3.5 mph5.6 kmh 29.44 in997.0 mb - 0.00 in0.0 mm 0.17 in4.3 mm
09:10 PM 49.2°F9.6°C 44.3°F6.8°C 83% 3.5 mph N5.6 kmh N 3.5 mph5.6 kmh 29.44 in997.0 mb - 0.00 in0.0 mm 0.17 in4.3 mm
09:15 PM 49.4°F9.7°C 44.1°F6.7°C 82% 3.5 mph NNW5.6 kmh NNW 4.6 mph7.4 kmh 29.44 in997.0 mb - 0.00 in0.0 mm 0.17 in4.3 mm
09:20 PM 49.4°F9.7°C 44.5°F6.9°C 83% 3.5 mph NNW5.6 kmh NNW 3.5 mph5.6 kmh 29.44 in997.0 mb - 0.00 in0.0 mm 0.17 in4.3 mm
09:25 PM 49.3°F9.6°C 44.0°F6.7°C 82% 2.3 mph NNW3.7 kmh NNW 3.5 mph5.6 kmh 29.44 in997.0 mb - 0.00 in0.0 mm 0.17 in4.3 mm
09:30 PM 49.2°F9.6°C 44.3°F6.8°C 83% 3.5 mph N5.6 kmh N 3.5 mph5.6 kmh 29.44 in997.0 mb - 0.00 in0.0 mm 0.17 in4.3 mm
09:35 PM 49.2°F9.6°C 43.9°F6.6°C 82% 4.6 mph NNW7.4 kmh NNW 8.1 mph13.0 kmh 29.45 in997.3 mb - 0.00 in0.0 mm 0.17 in4.3 mm
09:40 PM 49.3°F9.6°C 44.1°F6.7°C 82% 2.3 mph NNW3.7 kmh NNW 3.5 mph5.6 kmh 29.45 in997.3 mb - 0.00 in0.0 mm 0.17 in4.3 mm
09:45 PM 49.6°F9.8°C 44.0°F6.7°C 81% 3.5 mph N5.6 kmh N 3.5 mph5.6 kmh 29.45 in997.3 mb - 0.00 in0.0 mm 0.17 in4.3 mm
09:50 PM 49.7°F9.8°C 44.1°F6.7°C 81% 2.3 mph NNW3.7 kmh NNW 3.5 mph5.6 kmh 29.45 in997.3 mb - 0.00 in0.0 mm 0.17 in4.3 mm
09:55 PM 49.8°F9.9°C 44.2°F6.8°C 81% 4.6 mph N7.4 kmh N 5.8 mph9.3 kmh 29.45 in997.3 mb - 0.00 in0.0 mm 0.17 in4.3 mm
10:00 PM 49.7°F9.8°C 44.1°F6.7°C 81% 1.2 mph N1.9 kmh N 1.2 mph1.9 kmh 29.45 in997.3 mb - 0.00 in0.0 mm 0.17 in4.3 mm
10:05 PM 49.6°F9.8°C 44.0°F6.7°C 81% 1.2 mph N1.9 kmh N 3.5 mph5.6 kmh 29.46 in997.6 mb - 0.00 in0.0 mm 0.17 in4.3 mm
10:10 PM 49.4°F9.7°C 44.1°F6.7°C 82% 2.3 mph NNW3.7 kmh NNW 3.5 mph5.6 kmh 29.46 in997.6 mb - 0.00 in0.0 mm 0.17 in4.3 mm
10:15 PM 49.2°F9.6°C 43.9°F6.6°C 82% 2.3 mph N3.7 kmh N 3.5 mph5.6 kmh 29.46 in997.6 mb - 0.00 in0.0 mm 0.17 in4.3 mm
10:20 PM 49.0°F9.4°C 43.7°F6.5°C 82% 2.3 mph NNW3.7 kmh NNW 3.5 mph5.6 kmh 29.46 in997.6 mb - 0.00 in0.0 mm 0.17 in4.3 mm
10:25 PM 48.8°F9.3°C 43.5°F6.4°C 82% 3.5 mph NW5.6 kmh NW 4.6 mph7.4 kmh 29.47 in998.0 mb - 0.00 in0.0 mm 0.17 in4.3 mm
10:30 PM 48.8°F9.3°C 43.5°F6.4°C 82% 4.6 mph NW7.4 kmh NW 4.6 mph7.4 kmh 29.47 in998.0 mb - 0.00 in0.0 mm 0.17 in4.3 mm
10:35 PM 48.7°F9.3°C 43.5°F6.4°C 82% 4.6 mph NW7.4 kmh NW 9.2 mph14.8 kmh 29.47 in998.0 mb - 0.00 in0.0 mm 0.17 in4.3 mm
10:40 PM 48.7°F9.3°C 43.4°F6.3°C 82% 4.6 mph NW7.4 kmh NW 11.5 mph18.5 kmh 29.47 in998.0 mb - 0.00 in0.0 mm 0.17 in4.3 mm
10:45 PM 48.6°F9.2°C 43.7°F6.5°C 83% 6.9 mph NW11.1 kmh NW 10.4 mph16.7 kmh 29.47 in998.0 mb - 0.00 in0.0 mm 0.17 in4.3 mm
10:50 PM 48.5°F9.2°C 43.6°F6.4°C 83% 4.6 mph NW7.4 kmh NW 10.4 mph16.7 kmh 29.47 in998.0 mb - 0.00 in0.0 mm 0.17 in4.3 mm
10:55 PM 48.5°F9.2°C 43.6°F6.4°C 83% 4.6 mph NW7.4 kmh NW 9.2 mph14.8 kmh 29.47 in998.0 mb - 0.00 in0.0 mm 0.17 in4.3 mm
11:00 PM 48.5°F9.2°C 43.6°F6.4°C 83% 6.9 mph WNW11.1 kmh WNW 10.4 mph16.7 kmh 29.47 in998.0 mb - 0.00 in0.0 mm 0.16 in4.1 mm
11:05 PM 48.5°F9.2°C 43.9°F6.6°C 84% 4.6 mph WNW7.4 kmh WNW 6.9 mph11.1 kmh 29.47 in998.0 mb - 0.00 in0.0 mm 0.16 in4.1 mm
11:10 PM 48.5°F9.2°C 43.9°F6.6°C 84% 5.8 mph WNW9.3 kmh WNW 9.2 mph14.8 kmh 29.47 in998.0 mb - 0.00 in0.0 mm 0.16 in4.1 mm
11:15 PM 48.5°F9.2°C 43.6°F6.4°C 83% 4.6 mph WNW7.4 kmh WNW 6.9 mph11.1 kmh 29.47 in998.0 mb - 0.00 in0.0 mm 0.16 in4.1 mm
11:20 PM 48.4°F9.1°C 43.8°F6.6°C 84% 6.9 mph WNW11.1 kmh WNW 11.5 mph18.5 kmh 29.47 in998.0 mb - 0.00 in0.0 mm 0.16 in4.1 mm
11:25 PM 48.4°F9.1°C 43.5°F6.4°C 83% 5.8 mph NW9.3 kmh NW 9.2 mph14.8 kmh 29.48 in998.3 mb - 0.00 in0.0 mm 0.16 in4.1 mm
11:30 PM 48.5°F9.2°C 43.6°F6.4°C 83% 4.6 mph NW7.4 kmh NW 8.1 mph13.0 kmh 29.48 in998.3 mb - 0.00 in0.0 mm 0.16 in4.1 mm
11:35 PM 48.5°F9.2°C 43.2°F6.2°C 82% 4.6 mph NW7.4 kmh NW 8.1 mph13.0 kmh 29.48 in998.3 mb - 0.00 in0.0 mm 0.16 in4.1 mm
11:40 PM 48.5°F9.2°C 42.9°F6.1°C 81% 6.9 mph NW11.1 kmh NW 10.4 mph16.7 kmh 29.48 in998.3 mb - 0.00 in0.0 mm 0.16 in4.1 mm
11:45 PM 48.6°F9.2°C 43.3°F6.3°C 82% 5.8 mph NW9.3 kmh NW 9.2 mph14.8 kmh 29.48 in998.3 mb - 0.00 in0.0 mm 0.16 in4.1 mm
11:50 PM 48.7°F9.3°C 43.2°F6.2°C 81% 6.9 mph NW11.1 kmh NW 11.5 mph18.5 kmh 29.48 in998.3 mb - 0.00 in0.0 mm 0.16 in4.1 mm
11:55 PM 49.0°F9.4°C 43.4°F6.3°C 81% 4.6 mph NNW7.4 kmh NNW 5.8 mph9.3 kmh 29.49 in998.6 mb - 0.00 in0.0 mm 0.16 in4.1 mm